createdAt,value
2022-10-09T08:21:02.267Z,1.20
2022-10-09T08:24:03.854Z,1.25
2022-10-09T08:27:06.178Z,1.30
2022-10-09T08:30:08.316Z,1.20
2022-10-09T08:33:09.915Z,1.88
2022-10-09T08:36:15.043Z,1.48
2022-10-09T08:39:16.505Z,1.10
2022-10-09T08:42:31.126Z,1.60
2022-10-09T08:45:35.021Z,1.27
2022-10-09T08:48:42.758Z,1.48
2022-10-09T08:51:46.224Z,1.50
2022-10-09T08:54:47.864Z,1.40
2022-10-09T08:57:55.422Z,1.40
2022-10-09T20:39:24.699Z,2.38
2022-10-09T20:42:26.375Z,1.90
2022-10-09T20:45:27.831Z,2.33
2022-10-09T20:48:29.327Z,2.13
2022-10-09T20:51:30.856Z,1.65
2022-10-09T20:54:32.349Z,1.85
2022-10-09T20:57:33.865Z,2.25
2022-10-09T21:00:35.376Z,2.00
2022-10-09T21:03:38.334Z,2.10
2022-10-09T21:06:39.924Z,2.00
2022-10-09T21:09:41.547Z,1.80
2022-10-09T21:12:43.128Z,1.90
2022-10-09T21:15:47.047Z,2.20
2022-10-09T21:18:52.525Z,1.83
2022-10-09T21:21:54.043Z,1.85
2022-10-09T21:24:55.548Z,2.00
2022-10-09T21:27:57.015Z,1.70
2022-10-09T21:30:58.487Z,1.85
2022-10-09T21:34:01.263Z,1.70
2022-10-09T21:37:20.559Z,2.10
2022-10-09T21:40:23.803Z,2.65
2022-10-09T21:43:25.294Z,2.40
2022-10-09T21:46:27.024Z,2.20
2022-10-09T21:49:28.693Z,2.10
2022-10-09T21:52:30.144Z,2.00
2022-10-09T21:55:31.700Z,1.77
2022-10-09T21:58:33.220Z,2.03
2022-10-09T22:01:34.798Z,1.80
2022-10-09T22:04:36.549Z,1.85
2022-10-09T22:07:38.336Z,1.80
2022-10-09T22:10:41.985Z,1.70
2022-10-09T22:13:43.924Z,1.75
2022-10-09T22:16:45.396Z,1.80
2022-10-09T22:19:46.879Z,1.70
2022-10-09T22:22:48.734Z,1.67
2022-10-09T22:25:58.641Z,1.60
2022-10-09T22:29:00.243Z,1.70
2022-10-09T22:32:01.916Z,2.10
2022-10-09T22:35:04.153Z,1.60
2022-10-09T22:38:05.610Z,1.60
2022-10-09T22:41:13.829Z,1.70
2022-10-09T22:44:15.381Z,1.60
2022-10-09T22:47:16.840Z,1.70
2022-10-09T22:50:18.309Z,1.48
2022-10-09T22:53:19.749Z,1.60
2022-10-09T22:56:23.595Z,1.60
2022-10-09T22:59:25.235Z,1.42
2022-10-09T23:02:26.755Z,1.45
2022-10-09T23:05:28.211Z,1.63
2022-10-09T23:08:29.702Z,1.55
2022-10-09T23:11:31.301Z,1.50
2022-10-09T23:14:32.777Z,1.52
2022-10-09T23:17:34.233Z,1.45
2022-10-09T23:20:36.604Z,1.52
2022-10-09T23:23:38.457Z,1.45
